Time;durP1;ratioP1;P1;durP2;ratioP2;P2;SDS_P1;SDS_P2;PMS_P1;PMS_P2;Temp;Humidity;BMP_temperature;BMP_pressure;BME280_temperature;BME280_humidity;BME280_pressure;Samples;Min_cycle;Max_cycle;Signal;HPM_P1;HPM_P2
2022/08/31 00:06:15;;;;;;;2.80;0.70;;;;;;;15.29;98.97;101812.75;5035618;28;20768;-71
2022/08/31 00:08:42;;;;;;;3.77;0.83;;;;;;;15.23;99.44;101806.59;5035647;28;20443;-72
2022/08/31 00:11:12;;;;;;;3.70;1.00;;;;;;;15.18;98.36;101809.41;5035675;28;20432;-72
2022/08/31 00:13:39;;;;;;;3.73;0.90;;;;;;;15.14;98.26;101808.41;5035661;28;20457;-72
2022/08/31 00:16:08;;;;;;;3.30;1.10;;;;;;;15.11;98.78;101806.28;5035520;28;20506;-71
2022/08/31 00:18:35;;;;;;;3.20;0.90;;;;;;;14.99;99.01;101805.94;5035613;28;20439;-72
2022/08/31 00:21:01;;;;;;;3.80;1.30;;;;;;;14.98;99.16;101796.16;5035165;28;20467;-71
2022/08/31 00:23:28;;;;;;;3.13;0.90;;;;;;;15.01;99.15;101809.19;5035467;28;20451;-71
2022/08/31 00:25:54;;;;;;;6.10;1.50;;;;;;;14.98;100.00;101801.59;5035503;28;20446;-71
2022/08/31 00:28:21;;;;;;;4.33;1.30;;;;;;;14.89;99.85;101802.28;5035052;28;20967;-72
2022/08/31 00:30:48;;;;;;;3.00;0.80;;;;;;;14.79;100.00;101799.75;5034864;28;21019;-72
2022/08/31 00:33:16;;;;;;;3.63;1.00;;;;;;;14.76;100.00;101803.06;5035005;28;20962;-72
2022/08/31 00:35:43;;;;;;;2.97;0.80;;;;;;;14.75;100.00;101804.19;5035214;28;20482;-70
2022/08/31 00:38:11;;;;;;;3.00;0.80;;;;;;;14.73;100.00;101798.19;5035273;28;20458;-72
2022/08/31 00:40:38;;;;;;;3.30;0.90;;;;;;;14.72;98.37;101799.31;5035105;28;20463;-72
2022/08/31 00:43:05;;;;;;;5.73;1.63;;;;;;;14.61;96.21;101789.72;5035046;28;20443;-71
2022/08/31 00:45:32;;;;;;;3.27;0.90;;;;;;;14.53;96.12;101793.09;5035111;28;20450;-72
2022/08/31 00:47:58;;;;;;;2.77;0.70;;;;;;;14.52;96.56;101788.75;5035084;28;20497;-72
2022/08/31 00:50:27;;;;;;;3.20;1.00;;;;;;;14.54;98.51;101786.53;5034537;28;20482;-71
2022/08/31 00:52:59;;;;;;;3.20;1.03;;;;;;;14.52;100.00;101789.56;5034987;28;20447;-72
2022/08/31 00:55:31;;;;;;;3.70;1.10;;;;;;;14.57;100.00;101799.59;5034801;28;20490;-72
2022/08/31 00:58:00;;;;;;;4.10;1.23;;;;;;;14.58;100.00;101798.47;5034896;28;20458;-72
2022/08/31 01:00:28;;;;;;;2.90;0.90;;;;;;;14.55;100.00;101807.25;5034377;28;20466;-71
2022/08/31 01:02:56;;;;;;;3.37;0.90;;;;;;;14.56;100.00;101801.47;5034783;28;20446;-71
2022/08/31 01:05:23;;;;;;;3.00;0.77;;;;;;;14.54;100.00;101811.88;5034349;28;20960;-71
2022/08/31 01:07:53;;;;;;;4.10;1.30;;;;;;;14.57;100.00;101810.50;5034644;28;20450;-72
2022/08/31 01:10:23;;;;;;;2.80;0.67;;;;;;;14.57;100.00;101807.78;5034507;28;20574;-71
2022/08/31 01:12:52;;;;;;;3.00;0.80;;;;;;;14.59;100.00;101808.25;5033963;28;20450;-71
2022/08/31 01:15:20;;;;;;;3.37;1.20;;;;;;;14.59;100.00;101808.25;5034436;28;20494;-72
2022/08/31 01:17:48;;;;;;;3.30;1.10;;;;;;;14.59;100.00;101808.25;5034418;28;20439;-71
2022/08/31 01:20:21;;;;;;;3.13;0.87;;;;;;;14.60;100.00;101815.34;5034303;28;20463;-73
2022/08/31 01:23:03;;;;;;;4.50;1.57;;;;;;;14.57;100.00;101818.69;5034391;28;20420;-73
2022/08/31 01:25:30;;;;;;;2.80;0.80;;;;;;;14.56;100.00;101822.47;5034010;28;20936;-73
2022/08/31 01:27:59;;;;;;;3.67;1.20;;;;;;;14.57;100.00;101821.41;5034241;28;20871;-72
2022/08/31 01:30:26;;;;;;;3.60;1.10;;;;;;;14.53;100.00;101815.72;5033800;28;20983;-72
2022/08/31 01:32:53;;;;;;;3.10;0.80;;;;;;;14.65;100.00;101817.97;5034164;28;20443;-72
2022/08/31 01:35:19;;;;;;;3.30;1.23;;;;;;;14.80;100.00;101814.19;5033991;28;20483;-72
2022/08/31 01:37:46;;;;;;;4.20;1.03;;;;;;;14.83;100.00;101811.69;5034204;28;20439;-73
2022/08/31 01:40:14;;;;;;;3.60;1.37;;;;;;;14.84;100.00;101820.69;5033960;28;20827;-73
2022/08/31 01:42:41;;;;;;;4.13;0.87;;;;;;;14.88;100.00;101817.06;5033538;28;20455;-72
2022/08/31 01:45:09;;;;;;;3.60;1.10;;;;;;;15.01;100.00;101814.66;5033955;28;20450;-72
2022/08/31 01:47:35;;;;;;;2.93;0.80;;;;;;;15.03;100.00;101815.16;5033983;28;20446;-73
2022/08/31 01:50:02;;;;;;;3.30;1.00;;;;;;;15.05;100.00;101821.09;5033540;28;20497;-73
2022/08/31 01:52:28;;;;;;;3.20;1.10;;;;;;;15.07;100.00;101818.91;5033451;28;20447;-72
2022/08/31 01:54:55;;;;;;;3.60;0.97;;;;;;;15.08;100.00;101825.97;5033511;28;20443;-72
2022/08/31 01:57:23;;;;;;;4.07;1.13;;;;;;;15.12;99.46;101824.25;5033416;28;20964;-72
2022/08/31 01:59:49;;;;;;;4.40;1.13;;;;;;;15.13;99.29;101821.22;5033343;28;20995;-72
2022/08/31 02:02:16;;;;;;;4.10;1.10;;;;;;;15.07;97.46;101825.16;5033662;28;20503;-73
2022/08/31 02:04:42;;;;;;;3.47;1.10;;;;;;;15.13;97.59;101825.88;5033341;28;20458;-70
2022/08/31 02:07:09;;;;;;;3.23;1.20;;;;;;;15.16;99.42;101819.81;5033589;28;20454;-71
2022/08/31 02:09:35;;;;;;;3.53;1.00;;;;;;;15.19;100.00;101821.97;5033455;28;20455;-71
2022/08/31 02:12:02;;;;;;;3.53;1.07;;;;;;;15.22;100.00;101821.34;5033542;28;20496;-71
2022/08/31 02:14:30;;;;;;;3.30;1.17;;;;;;;15.28;100.00;101820.16;5033230;28;20439;-71
2022/08/31 02:16:57;;;;;;;4.10;0.90;;;;;;;15.28;100.00;101822.06;5033389;28;20479;-71
2022/08/31 02:19:23;;;;;;;4.70;1.03;;;;;;;15.33;100.00;101820.03;5033029;28;20874;-72
2022/08/31 02:21:49;;;;;;;3.33;0.90;;;;;;;15.35;100.00;101809.63;5033655;28;20451;-72
2022/08/31 02:24:16;;;;;;;3.27;1.00;;;;;;;15.32;99.96;101812.97;5033371;28;20447;-72
2022/08/31 02:26:43;;;;;;;3.67;1.20;;;;;;;15.27;100.00;101817.69;5033100;28;20998;-72
2022/08/31 02:29:09;;;;;;;4.50;1.10;;;;;;;15.23;99.18;101817.50;5033259;28;20463;-72
2022/08/31 02:31:37;;;;;;;3.37;1.20;;;;;;;15.25;98.74;101818.00;5033257;28;20443;-72
2022/08/31 02:34:03;;;;;;;4.40;1.00;;;;;;;15.11;97.42;101809.00;5033321;28;20470;-72
2022/08/31 02:36:31;;;;;;;3.00;0.90;;;;;;;15.08;97.84;101804.13;5033187;28;20482;-72
2022/08/31 02:38:57;;;;;;;3.37;1.13;;;;;;;15.10;99.21;101804.66;5033172;28;20517;-72
2022/08/31 02:41:24;;;;;;;3.40;1.10;;;;;;;15.12;99.91;101805.97;5033178;28;20439;-71
2022/08/31 02:43:50;;;;;;;4.50;1.33;;;;;;;15.07;100.00;101799.78;5033220;28;20443;-71
2022/08/31 02:46:17;;;;;;;3.53;1.10;;;;;;;15.08;100.00;101807.69;5033196;28;20443;-72
2022/08/31 02:48:45;;;;;;;3.77;1.00;;;;;;;15.05;100.00;101805.56;5032794;28;20455;-71
2022/08/31 02:51:12;;;;;;;4.00;1.40;;;;;;;14.95;100.00;101802.19;5033136;28;20450;-71
2022/08/31 02:53:38;;;;;;;3.20;1.00;;;;;;;14.97;100.00;101805.44;5033087;28;20450;-72
2022/08/31 02:56:06;;;;;;;6.00;1.60;;;;;;;14.96;100.00;101801.06;5035278;28;20490;-72
2022/08/31 02:58:33;;;;;;;3.47;0.93;;;;;;;14.93;100.00;101793.50;5036992;28;20447;-72
2022/08/31 03:01:00;;;;;;;3.40;1.10;;;;;;;14.94;100.00;101786.94;5037010;28;20463;-71
2022/08/31 03:03:26;;;;;;;3.30;1.00;;;;;;;14.88;100.00;101787.03;5036981;28;20446;-71
2022/08/31 03:05:54;;;;;;;6.30;1.23;;;;;;;14.85;100.00;101795.81;5036695;28;20955;-71
2022/08/31 03:08:20;;;;;;;4.07;1.70;;;;;;;14.77;100.00;101803.88;5036845;28;20813;-71
2022/08/31 03:10:47;;;;;;;2.90;0.73;;;;;;;14.71;100.00;101792.25;5036812;28;20466;-72
2022/08/31 03:13:13;;;;;;;3.00;0.90;;;;;;;14.64;100.00;101792.63;5036765;28;20447;-71
2022/08/31 03:15:40;;;;;;;4.80;1.20;;;;;;;14.57;100.00;101794.13;5036680;28;20857;-70
2022/08/31 03:18:06;;;;;;;3.23;1.00;;;;;;;14.58;100.00;101790.28;5036431;28;20802;-71
2022/08/31 03:20:33;;;;;;;3.30;1.10;;;;;;;14.57;100.00;101788.69;5036570;28;20459;-72
2022/08/31 03:23:01;;;;;;;4.40;1.53;;;;;;;14.52;100.00;101789.56;5036627;28;20450;-71
2022/08/31 03:25:28;;;;;;;11.00;1.20;;;;;;;14.58;100.00;101787.56;5036232;28;20435;-71
2022/08/31 03:27:54;;;;;;;3.93;1.20;;;;;;;14.59;100.00;101786.44;5036155;28;20940;-72
2022/08/31 03:30:22;;;;;;;4.20;1.27;;;;;;;14.56;100.00;101793.28;5036427;28;20474;-72
2022/08/31 03:32:49;;;;;;;3.80;1.40;;;;;;;14.52;100.00;101792.31;5036170;28;20807;-72
2022/08/31 03:35:17;;;;;;;4.60;1.23;;;;;;;14.48;100.00;101793.16;5036180;28;20447;-71
2022/08/31 03:37:45;;;;;;;7.27;1.30;;;;;;;14.49;100.00;101786.63;5036219;28;20483;-72
2022/08/31 03:40:13;;;;;;;3.67;1.30;;;;;;;14.41;100.00;101787.28;5035953;28;20455;-72
2022/08/31 03:42:40;;;;;;;3.40;1.00;;;;;;;14.33;100.00;101788.75;5036279;28;20825;-72
2022/08/31 03:45:07;;;;;;;12.60;1.70;;;;;;;14.23;100.00;101795.16;5036230;28;20569;-71
2022/08/31 03:47:34;;;;;;;4.30;1.07;;;;;;;14.16;100.00;101789.28;5036197;28;20450;-71
2022/08/31 03:50:02;;;;;;;4.00;1.13;;;;;;;14.21;100.00;101807.47;5035642;28;20506;-71
2022/08/31 03:52:29;;;;;;;3.60;1.30;;;;;;;14.26;100.00;101810.94;5036177;28;20451;-72
2022/08/31 03:54:55;;;;;;;4.60;1.60;;;;;;;14.26;100.00;101804.69;5035678;28;20443;-71
2022/08/31 03:57:23;;;;;;;3.47;1.40;;;;;;;14.27;100.00;101807.09;5035948;28;20478;-71
2022/08/31 03:59:52;;;;;;;3.90;1.47;;;;;;;14.27;100.00;101815.28;5035825;28;20489;-72
2022/08/31 04:02:19;;;;;;;3.37;0.93;;;;;;;14.22;100.00;101811.81;5035905;28;20822;-72
2022/08/31 04:04:49;;;;;;;5.73;1.20;;;;;;;14.18;100.00;101808.88;5035926;28;20447;-72
2022/08/31 04:07:17;;;;;;;3.50;1.30;;;;;;;14.23;100.00;101808.00;5035070;28;20829;-72
2022/08/31 04:09:44;;;;;;;3.77;1.50;;;;;;;14.19;100.00;101817.84;5035412;28;20467;-72
2022/08/31 04:12:10;;;;;;;4.77;1.37;;;;;;;14.17;100.00;101818.16;5035681;28;20455;-73
2022/08/31 04:14:38;;;;;;;3.33;1.10;;;;;;;14.18;100.00;101830.69;5035638;28;20432;-72
2022/08/31 04:17:05;;;;;;;4.43;1.60;;;;;;;14.20;100.00;101833.91;5035536;28;20491;-71
2022/08/31 04:19:31;;;;;;;3.30;1.23;;;;;;;14.20;100.00;101827.66;5035231;28;20478;-71
2022/08/31 04:21:58;;;;;;;3.80;1.10;;;;;;;14.20;100.00;101825.72;5035277;28;20967;-71
2022/08/31 04:24:24;;;;;;;4.13;1.10;;;;;;;14.17;100.00;101828.25;5035516;28;20826;-71
2022/08/31 04:26:52;;;;;;;3.80;1.53;;;;;;;14.18;100.00;101838.03;5035483;28;20435;-71
2022/08/31 04:29:19;;;;;;;3.70;1.43;;;;;;;14.17;100.00;101837.25;5035332;28;20463;-70
2022/08/31 04:31:47;;;;;;;4.00;1.40;;;;;;;14.17;100.00;101831.78;5035299;28;20451;-70
2022/08/31 04:34:13;;;;;;;5.30;1.60;;;;;;;14.15;100.00;101839.44;5035255;28;20458;-70
2022/08/31 04:36:40;;;;;;;4.13;1.20;;;;;;;14.16;100.00;101841.03;5035288;28;20848;-71
2022/08/31 04:39:07;;;;;;;5.40;1.10;;;;;;;14.18;100.00;101836.13;5035172;28;20458;-71
2022/08/31 04:41:37;;;;;;;4.50;1.67;;;;;;;14.17;100.00;101837.25;5035135;28;20509;-72
2022/08/31 04:44:04;;;;;;;3.70;1.20;;;;;;;14.20;100.00;101846.72;5035143;28;20443;-72
2022/08/31 04:46:36;;;;;;;4.50;1.63;;;;;;;14.20;100.00;101842.06;5035033;28;20455;-70
2022/08/31 04:49:06;;;;;;;3.97;1.30;;;;;;;14.18;100.00;101843.50;5034728;28;20475;-75
2022/08/31 04:51:34;;;;;;;3.30;1.07;;;;;;;14.22;100.00;101848.06;5034994;28;20427;-72
2022/08/31 04:54:01;;;;;;;4.90;1.87;;;;;;;14.07;100.00;101845.53;5034886;28;20446;-71
2022/08/31 04:56:32;;;;;;;5.37;1.60;;;;;;;14.11;100.00;101852.81;5034505;28;20509;-70
2022/08/31 04:59:00;;;;;;;4.77;1.87;;;;;;;14.08;100.00;101850.72;5034771;28;20428;-70
2022/08/31 05:01:30;;;;;;;4.20;1.80;;;;;;;14.10;100.00;101851.22;5034433;28;20936;-70
2022/08/31 05:03:58;;;;;;;3.43;0.97;;;;;;;14.15;100.00;101858.50;5034583;28;20432;-70
2022/08/31 05:06:28;;;;;;;4.20;1.50;;;;;;;14.11;100.00;101847.38;5034669;28;20809;-70
2022/08/31 05:08:57;;;;;;;3.53;1.30;;;;;;;14.17;100.00;101841.88;5034648;28;20828;-75
2022/08/31 05:11:24;;;;;;;5.67;1.50;;;;;;;14.17;100.00;101845.41;5034615;28;20443;-69
2022/08/31 05:14:04;;;;;;;4.33;1.87;;;;;;;14.21;100.00;101849.19;5034542;28;20447;-69
2022/08/31 05:16:32;;;;;;;4.03;1.40;;;;;;;14.27;100.00;101847.97;5034515;28;20475;-69
2022/08/31 05:19:00;;;;;;;7.13;1.90;;;;;;;14.29;100.00;101843.03;5033546;28;20451;-69
2022/08/31 05:21:30;;;;;;;6.40;1.10;;;;;;;14.33;100.00;101851.44;5034122;28;20943;-69
2022/08/31 05:23:58;;;;;;;4.00;1.47;;;;;;;14.34;100.00;101859.34;5034097;28;20932;-69
2022/08/31 05:26:27;;;;;;;4.07;1.60;;;;;;;14.33;100.00;101852.25;5034360;28;20540;-69
2022/08/31 05:28:54;;;;;;;4.80;1.57;;;;;;;14.36;100.00;101856.31;5034204;28;20439;-69
2022/08/31 05:31:22;;;;;;;3.27;1.13;;;;;;;14.42;100.00;101846.94;5034305;28;20477;-69
2022/08/31 05:33:49;;;;;;;3.40;1.10;;;;;;;14.48;100.00;101851.25;5034203;28;20451;-69
2022/08/31 05:36:16;;;;;;;4.70;1.37;;;;;;;14.54;100.00;101855.50;5034090;28;20450;-69
2022/08/31 05:38:44;;;;;;;3.77;1.20;;;;;;;14.59;100.00;101862.81;5033970;28;20522;-71
2022/08/31 05:41:11;;;;;;;3.10;1.10;;;;;;;14.64;100.00;101857.25;5034024;28;20443;-71
2022/08/31 05:43:38;;;;;;;4.13;1.40;;;;;;;14.68;100.00;101858.28;5033993;28;20439;-71
2022/08/31 05:46:05;;;;;;;4.07;1.27;;;;;;;14.77;100.00;101861.16;5033689;28;20457;-71
2022/08/31 05:48:33;;;;;;;3.33;1.10;;;;;;;14.82;100.00;101855.63;5033984;28;20443;-71
2022/08/31 05:51:01;;;;;;;3.30;1.30;;;;;;;14.85;100.00;101861.28;5033381;28;21018;-71
2022/08/31 05:53:28;;;;;;;3.80;1.10;;;;;;;14.88;100.00;101860.69;5033939;28;20447;-71
2022/08/31 05:56:00;;;;;;;3.63;1.17;;;;;;;14.96;100.00;101867.38;5073134;22;20502;-71
2022/08/31 05:58:27;;;;;;;3.60;1.30;;;;;;;14.98;100.00;101862.44;5053787;28;20470;-71
2022/08/31 06:00:53;;;;;;;5.30;0.90;;;;;;;15.04;100.00;101868.59;5053822;28;20442;-70
2022/08/31 06:03:20;;;;;;;3.77;1.30;;;;;;;15.08;100.00;101864.19;5053907;28;20442;-71
2022/08/31 06:05:49;;;;;;;3.90;1.03;;;;;;;15.16;100.00;101873.59;5053690;28;20458;-70
2022/08/31 06:08:15;;;;;;;11.13;1.10;;;;;;;15.23;100.00;101880.28;5053647;28;20815;-71
2022/08/31 06:10:42;;;;;;;3.83;1.10;;;;;;;15.28;100.00;101879.41;5053682;28;20445;-70
2022/08/31 06:13:12;;;;;;;6.50;0.97;;;;;;;15.34;100.00;101873.53;5053697;28;20446;-70
2022/08/31 06:15:39;;;;;;;2.90;0.90;;;;;;;15.41;100.00;101872.34;5053792;28;20465;-69
2022/08/31 06:18:06;;;;;;;3.83;1.20;;;;;;;15.50;100.00;101878.72;5053431;28;20560;-69
2022/08/31 06:20:36;;;;;;;4.83;0.87;;;;;;;15.56;100.00;101874.75;5053265;28;21049;-69
2022/08/31 06:23:04;;;;;;;5.20;1.37;;;;;;;15.62;100.00;101876.28;5053498;28;20450;-71
2022/08/31 06:25:31;;;;;;;4.40;1.23;;;;;;;15.65;100.00;101878.44;5053164;28;20481;-69
2022/08/31 06:27:58;;;;;;;5.37;1.20;;;;;;;15.75;100.00;101885.63;5053501;28;20441;-69
2022/08/31 06:30:26;;;;;;;5.10;1.03;;;;;;;15.83;100.00;101885.72;5053325;28;20454;-69
2022/08/31 06:32:53;;;;;;;2.80;0.80;;;;;;;15.88;100.00;101877.41;5057907;28;20510;-70
2022/08/31 06:35:19;;;;;;;3.13;1.00;;;;;;;15.94;99.96;101889.06;5053446;28;20462;-70
2022/08/31 06:37:46;;;;;;;2.80;0.70;;;;;;;15.99;100.00;101882.69;5053211;28;20482;-69
2022/08/31 06:40:12;;;;;;;4.30;1.00;;;;;;;16.04;99.98;101872.44;5053360;28;20511;-69
2022/08/31 06:42:39;;;;;;;3.20;0.80;;;;;;;16.11;99.92;101870.13;5053225;28;20818;-70
2022/08/31 06:45:07;;;;;;;3.33;1.23;;;;;;;16.18;98.87;101872.41;5053210;28;20465;-70
2022/08/31 06:47:35;;;;;;;2.87;0.73;;;;;;;16.26;98.70;101871.69;5052847;28;20433;-69
2022/08/31 06:50:01;;;;;;;3.20;0.80;;;;;;;16.30;96.89;101864.50;5053172;28;20450;-70
2022/08/31 06:52:28;;;;;;;3.00;0.80;;;;;;;16.39;96.59;101870.84;5052836;28;20457;-68
2022/08/31 06:54:54;;;;;;;3.30;1.00;;;;;;;16.50;96.13;101876.06;5052699;28;20859;-68
2022/08/31 06:57:21;;;;;;;4.20;1.30;;;;;;;16.59;95.90;101863.25;5053043;28;20491;-69
2022/08/31 06:59:48;;;;;;;3.67;1.03;;;;;;;16.68;95.49;101869.59;5053169;28;20903;-68
2022/08/31 07:02:14;;;;;;;3.00;1.00;;;;;;;16.58;90.03;101867.13;5052741;28;20442;-68
2022/08/31 07:04:42;;;;;;;2.90;0.77;;;;;;;16.73;91.31;101868.72;5053007;28;20454;-71
2022/08/31 07:07:10;;;;;;;2.90;0.70;;;;;;;16.81;90.31;101871.50;5052910;28;20813;-67
2022/08/31 07:09:38;;;;;;;3.40;1.00;;;;;;;16.89;90.05;101880.91;5052951;28;20512;-67
2022/08/31 07:12:05;;;;;;;3.03;0.83;;;;;;;16.94;90.49;101880.78;5053109;28;20446;-69
2022/08/31 07:14:32;;;;;;;2.87;0.70;;;;;;;17.01;90.09;101891.28;5052972;28;20455;-71
2022/08/31 07:17:01;;;;;;;10.03;1.10;;;;;;;17.11;90.36;101899.25;5052744;28;20493;-70
2022/08/31 07:19:28;;;;;;;3.10;1.23;;;;;;;17.18;89.53;101896.88;5053135;28;20489;-72
2022/08/31 07:21:58;;;;;;;4.23;0.80;;;;;;;17.26;89.21;101904.31;5052931;28;20442;-71
2022/08/31 07:24:28;;;;;;;3.10;0.70;;;;;;;17.30;86.58;101905.31;5052873;28;20464;-70
2022/08/31 07:26:58;;;;;;;4.87;0.93;;;;;;;17.42;86.27;101901.19;5052952;28;20841;-69
2022/08/31 07:29:28;;;;;;;18.07;1.10;;;;;;;17.48;85.95;101906.19;5052877;28;20437;-69
2022/08/31 07:31:56;;;;;;;2.70;0.60;;;;;;;17.53;86.01;101908.00;5053482;28;20796;-69
2022/08/31 07:34:25;;;;;;;3.30;0.70;;;;;;;17.62;85.85;101911.59;5052861;28;20466;-69
2022/08/31 07:42:29;;;;;;;3.47;0.83;;;;;;;17.82;85.21;101910.25;5055156;28;20452;-69
2022/08/31 07:44:58;;;;;;;2.70;0.60;;;;;;;17.88;83.95;101919.94;5056343;28;20458;-69
2022/08/31 07:47:27;;;;;;;3.83;0.80;;;;;;;17.95;82.68;101917.53;5056490;28;20488;-69
2022/08/31 07:49:55;;;;;;;3.73;0.83;;;;;;;18.05;83.10;101921.91;5056486;28;20450;-69
2022/08/31 07:52:25;;;;;;;3.00;0.70;;;;;;;18.11;78.51;101932.44;5056343;28;20445;-69
2022/08/31 07:54:55;;;;;;;2.80;0.50;;;;;;;18.17;78.94;101938.56;5056142;28;20499;-69
2022/08/31 07:57:24;;;;;;;2.80;0.60;;;;;;;18.26;79.82;101930.34;5056166;28;20478;-69
2022/08/31 07:59:54;;;;;;;2.80;0.67;;;;;;;18.32;80.27;101929.88;5056342;28;20548;-69
2022/08/31 08:02:22;;;;;;;3.30;0.73;;;;;;;18.37;80.88;101923.41;5056143;28;20935;-69
2022/08/31 08:04:52;;;;;;;3.57;0.87;;;;;;;18.41;79.90;101922.47;5056099;28;20466;-69
2022/08/31 08:07:18;;;;;;;2.70;0.50;;;;;;;18.42;80.34;101928.78;5055960;28;20438;-69
2022/08/31 08:09:45;;;;;;;3.63;0.87;;;;;;;18.48;77.78;101924.75;5055680;28;20970;-68
2022/08/31 08:12:14;;;;;;;2.93;0.73;;;;;;;18.55;77.08;101921.50;5055550;28;20966;-70
2022/08/31 08:14:40;;;;;;;5.90;0.80;;;;;;;18.65;77.47;101923.94;5056035;28;20462;-69
2022/08/31 08:17:08;;;;;;;2.90;0.60;;;;;;;18.74;77.21;101933.00;5055656;28;20442;-69
2022/08/31 08:19:34;;;;;;;2.77;0.73;;;;;;;18.78;77.60;101928.50;5055884;28;20493;-69
2022/08/31 08:22:02;;;;;;;3.27;0.80;;;;;;;18.87;76.09;101932.03;5055705;28;20449;-70
2022/08/31 08:24:30;;;;;;;6.00;0.77;;;;;;;18.92;73.90;101924.78;5060477;28;20516;-70
2022/08/31 08:26:57;;;;;;;3.53;0.53;;;;;;;18.93;70.39;101926.38;5055485;28;20825;-69
2022/08/31 08:29:25;;;;;;;4.73;0.50;;;;;;;19.03;71.79;101931.53;5055456;28;20854;-69
2022/08/31 08:31:52;;;;;;;5.33;0.83;;;;;;;19.02;71.28;101927.16;5055476;28;20442;-69
2022/08/31 08:34:20;;;;;;;2.47;0.40;;;;;;;19.12;72.15;101929.56;5055444;28;20507;-69
2022/08/31 08:36:46;;;;;;;2.90;0.70;;;;;;;19.19;72.93;101935.38;5055133;28;20939;-69
2022/08/31 08:39:13;;;;;;;3.10;0.87;;;;;;;19.08;67.31;101934.09;5055253;28;20490;-69
2022/08/31 08:41:43;;;;;;;2.80;0.60;;;;;;;19.13;69.60;101940.25;5054947;28;20809;-69
2022/08/31 08:44:12;;;;;;;3.33;0.90;;;;;;;19.08;67.51;101939.59;5055341;28;20446;-69
2022/08/31 08:46:46;;;;;;;5.33;0.70;;;;;;;19.19;68.48;101935.38;5055346;28;20449;-69
2022/08/31 08:49:20;;;;;;;3.03;0.60;;;;;;;19.30;69.95;101936.66;5054807;28;20918;-69
2022/08/31 08:51:51;;;;;;;3.07;0.80;;;;;;;19.41;70.57;101937.91;5054807;28;20430;-69
2022/08/31 08:54:28;;;;;;;3.30;0.90;;;;;;;19.48;71.33;101939.34;5054910;28;20458;-70
2022/08/31 08:56:58;;;;;;;3.00;0.80;;;;;;;19.48;67.13;101944.84;5055043;28;20433;-69
2022/08/31 08:59:27;;;;;;;2.60;0.50;;;;;;;19.47;66.89;101946.78;5054769;28;21003;-69
2022/08/31 09:02:00;;;;;;;2.70;0.60;;;;;;;19.52;65.45;101943.03;5054679;28;20450;-69
2022/08/31 09:04:52;;;;;;;2.50;0.40;;;;;;;19.60;65.63;101939.47;5054931;28;20474;-69
2022/08/31 09:07:43;;;;;;;2.90;0.57;;;;;;;19.66;66.81;101938.19;5055010;28;20525;-69
2022/08/31 09:10:17;;;;;;;5.13;0.70;;;;;;;19.74;68.05;101942.84;5055089;28;20476;-69
2022/08/31 09:12:52;;;;;;;2.60;0.50;;;;;;;19.83;69.15;101945.53;5054628;28;20433;-67
2022/08/31 09:15:41;;;;;;;2.70;0.60;;;;;;;19.87;69.48;101944.56;5054721;28;20461;-68
2022/08/31 09:18:24;;;;;;;3.20;1.00;;;;;;;19.82;67.84;101939.25;5054346;28;21068;-69
2022/08/31 09:21:10;;;;;;;4.17;0.70;;;;;;;19.82;68.81;101932.94;5054636;28;20434;-69
2022/08/31 09:23:43;;;;;;;2.70;0.50;;;;;;;19.85;66.37;101935.84;5054673;28;20463;-69
2022/08/31 09:26:15;;;;;;;3.00;0.70;;;;;;;19.95;65.76;101937.41;5054582;28;20472;-69
2022/08/31 09:28:47;;;;;;;2.60;0.40;;;;;;;19.93;63.95;101936.13;5054099;28;20903;-68
2022/08/31 09:31:33;;;;;;;3.07;0.60;;;;;;;19.97;63.95;101937.91;5054576;28;20431;-69
2022/08/31 09:34:02;;;;;;;2.60;0.43;;;;;;;20.10;65.38;101939.59;5054478;28;20427;-69
2022/08/31 09:36:37;;;;;;;3.07;0.73;;;;;;;20.21;63.76;101941.97;5053936;28;20449;-69
2022/08/31 09:39:18;;;;;;;2.53;0.40;;;;;;;20.28;63.90;101932.03;5054748;28;20666;-69
2022/08/31 09:41:46;;;;;;;4.47;0.77;;;;;;;20.31;62.64;101930.56;5054112;28;20982;-69
2022/08/31 09:44:23;;;;;;;2.70;0.60;;;;;;;20.38;61.68;101931.63;5054243;28;20442;-69
2022/08/31 09:46:53;;;;;;;2.70;0.50;;;;;;;20.43;61.69;101936.13;5054216;28;20426;-69
2022/08/31 09:49:22;;;;;;;2.80;0.50;;;;;;;20.60;63.04;101946.25;5053880;28;20504;-69
2022/08/31 09:51:49;;;;;;;3.73;0.90;;;;;;;20.69;60.98;101935.16;5053777;28;21005;-69
2022/08/31 09:57:07;;;;;;;5.43;0.50;;;;;;;20.72;61.76;101934.47;5053968;28;20899;-67
2022/08/31 09:59:38;;;;;;;2.60;0.50;;;;;;;20.85;62.64;101925.97;5053452;28;20568;-70
2022/08/31 10:02:11;;;;;;;3.23;0.70;;;;;;;20.90;58.98;101933.22;5053757;28;20434;-68
2022/08/31 10:04:49;;;;;;;2.60;0.50;;;;;;;20.91;60.58;101934.81;5053481;28;20502;-69
2022/08/31 10:07:28;;;;;;;2.60;0.50;;;;;;;21.08;60.77;101929.13;5053787;28;20418;-68
2022/08/31 10:09:58;;;;;;;3.93;0.77;;;;;;;21.01;59.25;101931.63;5053699;28;20449;-69
2022/08/31 10:12:37;;;;;;;2.50;0.40;;;;;;;21.11;60.05;101930.38;5053714;28;20437;-69
2022/08/31 10:15:09;;;;;;;4.93;0.90;;;;;;;21.10;59.47;101928.78;5058467;28;20883;-69
2022/08/31 10:17:41;;;;;;;2.90;0.57;;;;;;;21.12;59.79;101929.28;5053649;28;20422;-68
2022/08/31 10:20:15;;;;;;;3.20;0.50;;;;;;;21.19;59.94;101920.44;5053395;28;20468;-68
2022/08/31 10:22:45;;;;;;;3.00;0.50;;;;;;;21.13;59.38;101922.59;5053538;28;20430;-68
2022/08/31 10:25:22;;;;;;;3.83;0.60;;;;;;;21.23;62.36;101919.41;5053603;28;20543;-69
2022/08/31 10:27:52;;;;;;;3.27;0.63;;;;;;;21.37;60.90;101911.66;5053160;28;20926;-69
2022/08/31 10:30:34;;;;;;;2.80;0.60;;;;;;;21.39;58.83;101925.91;5053313;28;20430;-69
2022/08/31 10:33:08;;;;;;;2.90;0.63;;;;;;;21.46;56.96;101914.31;5053320;28;20458;-68
2022/08/31 10:35:52;;;;;;;3.33;0.67;;;;;;;21.59;57.83;101920.66;5052825;28;20983;-70
2022/08/31 10:38:26;;;;;;;2.60;0.57;;;;;;;21.83;58.57;101923.44;5053240;28;20810;-71
2022/08/31 10:41:08;;;;;;;2.80;0.70;;;;;;;21.89;54.50;101924.00;5053233;28;20429;-71
2022/08/31 10:43:44;;;;;;;2.50;0.50;;;;;;;22.11;54.68;101911.69;5053360;28;20426;-69
2022/08/31 10:46:11;;;;;;;2.80;0.70;;;;;;;22.26;55.06;101923.97;5053144;28;20466;-68
2022/08/31 10:48:50;;;;;;;2.50;0.40;;;;;;;22.27;51.07;101929.16;5052924;28;20438;-70
2022/08/31 10:51:26;;;;;;;2.73;0.60;;;;;;;22.49;52.55;101916.81;5053148;28;20485;-69
2022/08/31 10:54:06;;;;;;;2.67;0.50;;;;;;;22.69;54.06;101915.00;5053291;28;20465;-69
2022/08/31 10:56:40;;;;;;;2.80;0.60;;;;;;;22.89;52.40;101908.50;5053109;28;20490;-69
2022/08/31 10:59:15;;;;;;;2.53;0.47;;;;;;;22.99;51.87;101917.44;5053147;28;20877;-69
2022/08/31 11:01:51;;;;;;;2.80;0.73;;;;;;;22.99;52.62;101911.91;5053131;28;20465;-69
2022/08/31 11:04:48;;;;;;;2.70;0.67;;;;;;;23.09;51.49;101916.94;5052871;28;20828;-69
2022/08/31 11:07:28;;;;;;;2.80;0.50;;;;;;;23.28;51.15;101913.47;5053107;28;20496;-68
2022/08/31 11:10:04;;;;;;;2.80;0.50;;;;;;;23.22;49.17;101910.16;5052902;28;20418;-69
2022/08/31 11:12:40;;;;;;;2.70;0.50;;;;;;;23.16;49.93;101911.59;5053091;28;20509;-69
2022/08/31 11:15:30;;;;;;;3.17;0.50;;;;;;;23.42;49.24;101905.56;5052788;28;21001;-69
2022/08/31 11:18:34;;;;;;;2.47;0.50;;;;;;;24.38;49.29;101896.75;5056046;28;20935;-69
2022/08/31 11:21:23;;;;;;;2.87;0.73;;;;;;;24.44;47.40;101899.25;5056544;28;20961;-69
2022/08/31 11:24:08;;;;;;;3.00;0.70;;;;;;;24.08;47.24;101904.81;5046279;28;20458;-69
2022/08/31 11:26:44;;;;;;;2.70;0.60;;;;;;;24.37;47.63;101909.00;5056371;28;20435;-71
2022/08/31 11:29:22;;;;;;;2.90;0.63;;;;;;;24.83;45.32;101903.59;5056458;28;20422;-71
2022/08/31 11:31:50;;;;;;;3.00;0.60;;;;;;;25.83;43.88;101897.06;5056530;28;20439;-69
2022/08/31 11:34:25;;;;;;;2.90;0.70;;;;;;;25.64;42.84;101895.19;5056571;28;20449;-69
2022/08/31 11:36:54;;;;;;;2.77;0.53;;;;;;;26.17;41.51;101899.94;5056797;28;20434;-69
2022/08/31 11:39:43;;;;;;;3.00;0.90;;;;;;;26.30;41.50;101903.31;5056484;28;20498;-69
2022/08/31 11:42:52;;;;;;;2.70;0.53;;;;;;;27.31;41.74;101904.06;5056609;28;20553;-69
2022/08/31 11:45:30;;;;;;;2.60;0.70;;;;;;;27.89;39.80;101900.59;5056323;28;20502;-69
2022/08/31 11:47:57;;;;;;;2.60;0.50;;;;;;;28.16;36.75;101894.78;5056009;28;20477;-68